Time;durP1;ratioP1;P1;durP2;ratioP2;P2;SDS_P1;SDS_P2;PMS_P1;PMS_P2;Temp;Humidity;BMP_temperature;BMP_pressure;BME280_temperature;BME280_humidity;BME280_pressure;Samples;Min_cycle;Max_cycle;Signal;HPM_P1;HPM_P2
2022/12/05 00:01:27;;;;;;;;;14.75;12.50;;;;;19.77;31.72;101045.72;5057985;28;45885;-60
2022/12/05 00:03:56;;;;;;;;;11.25;8.50;;;;;19.75;31.96;101050.19;5058172;28;45512;-59
2022/12/05 00:06:23;;;;;;;;;11.50;9.25;;;;;19.73;31.64;101044.16;5058130;28;45319;-48
2022/12/05 00:08:48;;;;;;;;;16.75;11.50;;;;;19.71;31.56;101048.63;5057614;28;46396;-49
2022/12/05 00:11:18;;;;;;;;;11.50;11.25;;;;;19.70;31.60;101046.91;5057877;28;45336;-56
2022/12/05 00:13:44;;;;;;;;;18.75;14.75;;;;;19.70;31.82;101051.34;5057894;28;45261;-51
2022/12/05 00:16:13;;;;;;;;;11.50;11.50;;;;;19.68;31.61;101055.81;5058492;28;45306;-59
2022/12/05 00:18:39;;;;;;;;;10.50;8.50;;;;;19.67;32.10;101056.75;5058139;28;45507;-58
2022/12/05 00:21:05;;;;;;;;;11.75;11.75;;;;;19.66;31.90;101065.56;5057878;28;45811;-60
2022/12/05 00:23:31;;;;;;;;;12.50;10.50;;;;;19.65;32.01;101059.44;5057903;28;45310;-59
2022/12/05 00:25:56;;;;;;;;;11.00;10.50;;;;;19.63;31.65;101061.31;5058004;28;45593;-59
2022/12/05 00:28:21;;;;;;;;;10.50;10.50;;;;;19.62;32.03;101049.91;5057705;28;45356;-51
2022/12/05 00:30:47;;;;;;;;;15.00;12.25;;;;;19.62;31.76;101054.34;5057539;28;45417;-55
2022/12/05 00:33:12;;;;;;;;;16.75;12.25;;;;;19.60;32.02;101057.03;5057880;28;45482;-48
2022/12/05 00:35:38;;;;;;;;;15.00;12.75;;;;;19.59;31.69;101057.97;5057767;28;45418;-51
2022/12/05 00:38:03;;;;;;;;;13.50;11.25;;;;;19.59;31.71;101062.38;5057025;28;54091;-45
2022/12/05 00:40:28;;;;;;;;;14.00;11.00;;;;;19.56;32.24;101063.38;5057029;28;52872;-50
2022/12/05 00:42:54;;;;;;;;;14.50;12.75;;;;;19.57;31.72;101064.19;5039326;28;45372;-51
2022/12/05 00:45:19;;;;;;;;;14.50;12.50;;;;;19.55;31.71;101061.66;5057483;28;45532;-47
2022/12/05 00:47:44;;;;;;;;;12.75;11.75;;;;;19.56;31.53;101062.53;5057501;28;45780;-49
2022/12/05 00:50:10;;;;;;;;;15.00;13.25;;;;;19.54;31.54;101061.75;5057260;28;45591;-49
2022/12/05 00:52:35;;;;;;;;;14.00;11.00;;;;;19.52;32.08;101053.06;5057505;28;45384;-50
2022/12/05 00:55:00;;;;;;;;;13.75;12.25;;;;;19.51;31.70;101054.88;5057200;28;45478;-51
2022/12/05 00:57:26;;;;;;;;;13.25;11.00;;;;;19.50;31.93;101054.91;5056980;28;49016;-49
2022/12/05 00:59:51;;;;;;;;;11.75;11.25;;;;;19.48;32.16;101052.38;5056929;28;45302;-50
2022/12/05 01:02:16;;;;;;;;;19.00;12.50;;;;;19.50;31.82;101068.94;5057074;28;45441;-53
2022/12/05 01:04:42;;;;;;;;;13.00;10.00;;;;;19.51;32.01;101073.25;5057546;28;45596;-48
2022/12/05 01:07:08;;;;;;;;;13.50;11.75;;;;;19.54;31.96;101074.88;5056784;28;45905;-48
2022/12/05 01:09:34;;;;;;;;;17.00;12.50;;;;;19.58;31.87;101081.69;5056836;28;45252;-47
2022/12/05 01:11:59;;;;;;;;;13.00;10.50;;;;;19.62;32.30;101075.38;5038847;28;45384;-48
2022/12/05 01:14:25;;;;;;;;;15.50;13.25;;;;;19.64;32.23;101068.28;5057124;28;45590;-46
2022/12/05 01:16:53;;;;;;;;;14.00;12.25;;;;;19.71;32.28;101072.28;5056774;28;47211;-47
2022/12/05 01:19:24;;;;;;;;;16.50;13.25;;;;;19.77;32.38;101089.56;5056042;28;45354;-47
2022/12/05 01:21:49;;;;;;;;;13.50;11.00;;;;;19.82;32.25;101089.34;5056936;28;45316;-48
2022/12/05 01:24:16;;;;;;;;;9.75;9.75;;;;;19.87;32.11;101095.28;5057159;28;45304;-48
2022/12/05 01:26:43;;;;;;;;;11.25;11.25;;;;;19.91;32.27;101092.41;5056565;28;46524;-50
2022/12/05 01:29:09;;;;;;;;;10.75;10.75;;;;;19.95;31.71;101098.38;5056492;28;45403;-47
2022/12/05 01:31:36;;;;;;;;;13.50;12.00;;;;;19.98;31.93;101103.50;5056698;28;45288;-49
2022/12/05 01:34:04;;;;;;;;;12.00;10.25;;;;;20.02;31.86;101101.56;5056838;28;45425;-50
2022/12/05 01:36:30;;;;;;;;;15.50;14.00;;;;;20.06;31.61;101111.03;5056488;28;45363;-45
2022/12/05 01:38:56;;;;;;;;;12.25;12.25;;;;;20.08;31.83;101112.63;5056514;28;45264;-52
2022/12/05 01:41:43;;;;;;;;;13.25;12.75;;;;;20.11;31.43;101113.41;5056683;28;45473;-53
2022/12/05 01:44:12;;;;;;;;;15.00;10.75;;;;;20.14;31.62;101119.38;5056560;28;45459;-47
2022/12/05 01:46:49;;;;;;;;;12.75;11.00;;;;;20.15;31.47;101118.47;5056462;28;45368;-52
2022/12/05 01:49:18;;;;;;;;;13.50;10.50;;;;;20.19;31.54;101127.03;5056867;28;45323;-53
2022/12/05 01:51:46;;;;;;;;;10.50;10.00;;;;;20.20;32.16;101134.03;5056960;28;45387;-54
2022/12/05 01:54:13;;;;;;;;;14.00;11.25;;;;;20.25;31.71;101142.53;5056573;28;45488;-54
2022/12/05 01:56:41;;;;;;;;;12.25;10.00;;;;;20.26;32.04;101138.97;5056381;28;46641;-53
2022/12/05 01:59:08;;;;;;;;;14.00;12.00;;;;;20.28;31.53;101147.66;5038215;28;45303;-53
2022/12/05 02:01:34;;;;;;;;;17.00;12.50;;;;;20.30;31.56;101156.31;5056306;28;45802;-49
2022/12/05 02:04:01;;;;;;;;;14.75;13.00;;;;;20.31;31.77;101150.13;5056486;28;45405;-56
2022/12/05 02:06:27;;;;;;;;;10.50;9.50;;;;;20.33;31.53;101148.28;5055999;28;45667;-51
2022/12/05 02:08:53;;;;;;;;;17.75;16.50;;;;;20.37;31.54;101156.88;5056059;28;45894;-48
2022/12/05 02:11:19;;;;;;;;;16.25;14.75;;;;;20.38;31.46;101154.16;5056399;28;45427;-50
2022/12/05 02:14:03;;;;;;;;;18.25;16.75;;;;;20.41;31.38;101152.31;5056699;28;45469;-50
2022/12/05 02:16:57;;;;;;;;;19.00;17.00;;;;;20.42;31.73;101148.75;5055767;28;46365;-50
2022/12/05 02:19:36;;;;;;;;;20.50;19.25;;;;;20.43;31.82;101142.56;5055953;28;45908;-52
2022/12/05 02:22:28;;;;;;;;;22.00;17.75;;;;;20.44;31.30;101136.38;5056089;28;45490;-49
2022/12/05 02:25:18;;;;;;;;;18.25;18.00;;;;;20.45;31.89;101138.06;5056304;28;45405;-52
2022/12/05 02:28:07;;;;;;;;;19.75;19.50;;;;;20.44;31.73;101142.47;5055724;28;46388;-51
2022/12/05 02:30:51;;;;;;;;;23.50;17.50;;;;;20.45;31.73;101143.34;5055585;28;45992;-51
2022/12/05 02:33:27;;;;;;;;;18.25;17.25;;;;;20.44;31.37;101144.25;5059733;28;45372;-48
2022/12/05 02:36:04;;;;;;;;;22.00;17.75;;;;;20.43;31.60;101139.91;5059635;28;45315;-50
2022/12/05 02:38:43;;;;;;;;;23.00;19.50;;;;;20.43;31.83;101140.75;5059224;28;45386;-48
2022/12/05 02:41:24;;;;;;;;;22.50;16.75;;;;;20.44;31.73;101150.38;5059418;28;45395;-48
2022/12/05 02:44:03;;;;;;;;;19.50;16.25;;;;;20.44;31.73;101152.16;5059549;28;45267;-47
2022/12/05 02:46:32;;;;;;;;;15.25;14.50;;;;;20.44;31.58;101149.53;5059552;28;45364;-52
2022/12/05 02:49:02;;;;;;;;;16.25;15.50;;;;;20.43;31.84;101150.44;5059092;28;46321;-48
2022/12/05 02:51:33;;;;;;;;;20.25;17.50;;;;;20.43;31.51;101139.91;5059196;28;45390;-47
2022/12/05 02:54:04;;;;;;;;;20.00;16.75;;;;;20.40;31.46;101135.63;5059172;28;45500;-51
2022/12/05 02:56:33;;;;;;;;;17.25;15.75;;;;;20.42;31.46;101146.13;5059348;28;45427;-54
2022/12/05 02:58:59;;;;;;;;;19.50;16.75;;;;;20.41;31.93;101147.03;5058843;28;45378;-52
2022/12/05 03:01:29;;;;;;;;;19.25;13.25;;;;;20.41;31.28;101147.03;5058959;28;45260;-50
2022/12/05 03:03:57;;;;;;;;;20.00;16.75;;;;;20.38;31.53;101142.78;5059045;28;45392;-53
2022/12/05 03:06:28;;;;;;;;;12.50;10.75;;;;;20.38;31.25;101148.88;5058102;28;45367;-48
2022/12/05 03:09:00;;;;;;;;;15.75;15.00;;;;;20.37;31.58;101141.06;5058831;28;45390;-56
2022/12/05 03:11:34;;;;;;;;;18.75;15.50;;;;;20.36;31.35;101152.53;5058731;28;45419;-50
2022/12/05 03:14:02;;;;;;;;;18.25;15.75;;;;;20.34;31.54;101152.59;5058891;28;45296;-47
2022/12/05 03:16:36;;;;;;;;;17.00;15.00;;;;;20.33;31.25;101144.78;5058972;28;45434;-52
2022/12/05 03:19:11;;;;;;;;;14.25;14.25;;;;;20.29;31.46;101144.09;5058620;28;45451;-49
2022/12/05 03:21:44;;;;;;;;;18.75;16.50;;;;;20.30;31.87;101151.06;5058504;28;45257;-48
2022/12/05 03:24:13;;;;;;;;;16.00;14.50;;;;;20.28;31.70;101150.28;5058729;28;45250;-49
2022/12/05 03:27:00;;;;;;;;;8.25;8.00;;;;;20.26;31.83;101149.50;5058975;28;45505;-47
2022/12/05 03:29:30;;;;;;;;;15.00;14.00;;;;;20.26;31.47;101157.38;5058428;28;45421;-48
2022/12/05 03:32:19;;;;;;;;;13.75;12.50;;;;;20.22;31.75;101154.06;5058581;28;45320;-48
2022/12/05 03:35:17;;;;;;;;;14.75;14.75;;;;;20.24;31.90;101156.59;5058531;28;45325;-57
2022/12/05 03:38:06;;;;;;;;;16.50;15.50;;;;;20.22;31.21;101154.06;5047047;28;45267;-58
2022/12/05 03:40:52;;;;;;;;;20.00;16.25;;;;;20.19;31.23;101156.00;5058305;28;46381;-56
2022/12/05 03:43:39;;;;;;;;;19.00;14.00;;;;;20.19;31.93;101162.09;5057705;28;45446;-59
2022/12/05 03:46:31;;;;;;;;;16.25;15.00;;;;;20.20;31.52;101162.97;5058481;28;45381;-56
2022/12/05 03:49:17;;;;;;;;;19.00;14.00;;;;;20.20;31.71;101157.69;5029335;28;45300;-53
2022/12/05 03:51:48;;;;;;;;;13.50;13.00;;;;;20.23;32.11;101170.69;5058202;28;45334;-58
2022/12/05 03:54:22;;;;;;;;;18.25;14.50;;;;;20.26;31.86;101170.53;5040179;28;45361;-59
2022/12/05 03:56:53;;;;;;;;;13.50;12.75;;;;;20.30;31.57;101182.66;5058450;28;45418;-57
2022/12/05 03:59:33;;;;;;;;;14.75;14.75;;;;;20.33;31.90;101187.75;5058490;28;45343;-58
2022/12/05 04:02:03;;;;;;;;;17.75;15.00;;;;;20.35;32.05;101185.88;5058387;28;45260;-58
2022/12/05 04:04:35;;;;;;;;;18.50;13.25;;;;;20.39;31.93;101186.63;5058120;28;45871;-56
2022/12/05 04:07:04;;;;;;;;;16.00;15.00;;;;;20.42;31.66;101185.59;5058283;28;45339;-51
2022/12/05 04:09:46;;;;;;;;;16.75;16.00;;;;;20.45;31.81;101185.47;5058253;28;45447;-50
2022/12/05 04:12:20;;;;;;;;;15.75;13.75;;;;;20.46;32.01;101197.66;5058218;28;46544;-59
2022/12/05 04:14:50;;;;;;;;;15.25;12.75;;;;;20.48;31.75;101195.81;5058179;28;45252;-54
2022/12/05 04:17:29;;;;;;;;;17.25;14.00;;;;;20.50;31.60;101192.19;5058088;28;45477;-56
2022/12/05 04:22:50;;;;;;;;;14.25;14.00;;;;;20.53;32.06;101193.81;5057680;28;45753;-49
2022/12/05 04:25:32;;;;;;;;;13.25;13.25;;;;;20.55;32.10;101194.59;5057862;28;45292;-52
2022/12/05 04:28:19;;;;;;;;;15.25;11.50;;;;;20.57;31.94;101198.00;5057827;28;45209;-48
2022/12/05 04:30:49;;;;;;;;;17.50;16.50;;;;;20.59;31.93;101198.78;5039880;28;45616;-46
2022/12/05 04:33:28;;;;;;;;;16.00;14.50;;;;;20.60;31.98;101194.38;5039449;28;50101;-57
2022/12/05 04:36:02;;;;;;;;;17.00;12.75;;;;;20.62;31.76;101200.38;5058000;28;45240;-52
2022/12/05 04:39:01;;;;;;;;;16.00;14.00;;;;;20.64;31.46;101198.53;5058048;28;45389;-59
2022/12/05 04:41:38;;;;;;;;;14.25;14.25;;;;;20.63;31.81;101200.34;5058115;28;45293;-56
2022/12/05 04:44:11;;;;;;;;;15.25;14.25;;;;;20.66;31.81;101202.81;5057290;28;45483;-60
2022/12/05 04:46:41;;;;;;;;;14.50;14.50;;;;;20.69;31.40;101207.91;5057391;28;45238;-56
2022/12/05 04:49:10;;;;;;;;;15.00;13.25;;;;;20.69;31.53;101210.53;5057411;28;45354;-56
2022/12/05 04:51:37;;;;;;;;;16.00;12.75;;;;;20.70;31.54;101209.63;5057705;28;45252;-59
2022/12/05 04:54:17;;;;;;;;;17.00;12.50;;;;;20.72;31.75;101211.34;5056175;28;46260;-48
2022/12/05 04:56:47;;;;;;;;;15.00;12.25;;;;;20.73;31.84;101211.25;5057233;28;45976;-47
2022/12/05 04:59:12;;;;;;;;;16.25;13.50;;;;;20.75;31.60;101221.75;5057356;28;45248;-49
2022/12/05 05:01:56;;;;;;;;;16.75;13.25;;;;;20.77;31.86;101226.00;5057493;28;45254;-53
2022/12/05 05:04:43;;;;;;;;;11.50;10.75;;;;;20.77;31.33;101218.09;5057222;28;46115;-53
2022/12/05 05:07:11;;;;;;;;;13.50;12.75;;;;;20.78;31.86;101219.81;5056981;28;45449;-50
2022/12/05 05:09:37;;;;;;;;;13.25;13.25;;;;;20.80;31.87;101217.09;5057025;28;45327;-50
2022/12/05 05:12:03;;;;;;;;;13.00;13.00;;;;;20.80;31.65;101217.97;5057143;28;45522;-55
2022/12/05 05:14:29;;;;;;;;;16.25;13.50;;;;;20.82;31.55;101217.88;5057221;28;45383;-54
2022/12/05 05:16:54;;;;;;;;;12.00;8.75;;;;;20.83;31.41;101222.22;5056918;28;45367;-50
2022/12/05 05:19:19;;;;;;;;;17.25;13.75;;;;;20.83;31.58;101222.22;5057097;28;45308;-58
2022/12/05 05:21:45;;;;;;;;;13.50;12.00;;;;;20.85;31.83;101228.25;5057156;28;45526;-58
2022/12/05 05:24:11;;;;;;;;;13.75;11.25;;;;;20.85;31.74;101221.19;5056834;28;45321;-58
2022/12/05 05:26:39;;;;;;;;;16.00;12.50;;;;;20.85;31.40;101225.63;5056687;28;45255;-53
2022/12/05 05:29:06;;;;;;;;;16.25;13.25;;;;;20.88;31.42;101230.75;5056912;28;45391;-54
2022/12/05 05:31:31;;;;;;;;;14.00;12.75;;;;;20.89;31.92;101223.69;5057197;28;45586;-54
2022/12/05 05:33:57;;;;;;;;;15.25;10.75;;;;;20.89;31.28;101229.78;5056942;28;45662;-53
2022/12/05 05:36:26;;;;;;;;;11.75;11.00;;;;;20.89;31.66;101231.59;5056649;28;45525;-49
2022/12/05 05:38:55;;;;;;;;;15.25;12.50;;;;;20.89;31.19;101229.78;5056822;28;45301;-53
2022/12/05 05:41:22;;;;;;;;;12.00;12.00;;;;;20.92;31.59;101236.72;5056885;28;45678;-53
2022/12/05 05:43:48;;;;;;;;;12.75;10.50;;;;;20.93;31.46;101238.41;5056275;28;46271;-46
2022/12/05 05:46:16;;;;;;;;;12.75;10.75;;;;;20.94;31.58;101245.41;5056507;28;45454;-46
2022/12/05 05:48:41;;;;;;;;;6.50;6.50;;;;;20.92;31.27;101240.19;5056593;28;45313;-51
2022/12/05 05:51:09;;;;;;;;;11.75;11.50;;;;;20.94;31.60;101246.22;5056810;28;45491;-48
2022/12/05 05:53:35;;;;;;;;;11.75;11.25;;;;;20.95;31.69;101250.56;5056205;28;45443;-46
2022/12/05 05:56:06;;;;;;;;;15.75;14.75;;;;;20.96;31.63;101257.56;5056606;28;45352;-53
2022/12/05 05:58:31;;;;;;;;;12.00;12.00;;;;;20.96;31.44;101257.56;5056722;28;45276;-58
2022/12/05 06:01:08;;;;;;;;;12.00;11.00;;;;;20.98;31.68;101258.34;5056547;28;45545;-49
2022/12/05 06:03:34;;;;;;;;;11.50;10.75;;;;;20.98;31.68;101252.19;5055973;28;48705;-56
2022/12/05 06:06:02;;;;;;;;;14.50;11.75;;;;;20.99;31.82;101264.44;5056184;28;45289;-55
2022/12/05 06:08:31;;;;;;;;;13.00;11.00;;;;;20.98;31.14;101263.59;5056588;28;45359;-63
2022/12/05 06:10:56;;;;;;;;;11.75;11.00;;;;;21.00;31.18;101266.16;5056579;28;45509;-54
2022/12/05 06:13:21;;;;;;;;;11.75;11.25;;;;;21.00;31.37;101272.25;5056029;28;45380;-55
2022/12/05 06:15:46;;;;;;;;;10.25;9.75;;;;;21.00;31.54;101269.63;5056165;28;45347;-55
2022/12/05 06:18:12;;;;;;;;;9.50;4.00;;;;;21.03;31.50;101270.41;5056303;28;45245;-57
2022/12/05 06:20:37;;;;;;;;;11.50;9.00;;;;;21.05;31.56;101271.19;5056285;28;45505;-53
2022/12/05 06:23:03;;;;;;;;;11.75;11.75;;;;;21.08;31.19;101273.69;5056188;28;45553;-48
2022/12/05 06:25:28;;;;;;;;;9.25;9.25;;;;;21.08;31.22;101273.69;5055930;28;45326;-49
2022/12/05 06:27:53;;;;;;;;;17.50;11.75;;;;;21.07;31.34;101272.81;5038042;28;45485;-50
2022/12/05 06:30:19;;;;;;;;;11.50;10.50;;;;;21.08;31.47;101277.16;5038048;28;45694;-50
2022/12/05 06:32:44;;;;;;;;;13.25;10.75;;;;;21.08;31.20;101282.41;5055825;28;45399;-58
2022/12/05 06:35:14;;;;;;;;;11.50;11.50;;;;;21.08;31.30;101284.22;5055694;28;45375;-55
2022/12/05 06:37:44;;;;;;;;;15.75;13.00;;;;;21.07;31.22;101287.78;5055879;28;45410;-54
2022/12/05 06:40:13;;;;;;;;;12.00;11.00;;;;;21.07;31.66;101293.06;5056122;28;45625;-55
2022/12/05 06:42:38;;;;;;;;;14.25;11.25;;;;;21.08;31.54;101297.41;5055347;28;45991;-53
2022/12/05 06:45:04;;;;;;;;;14.75;12.25;;;;;21.08;31.64;101302.66;5055953;28;45489;-52
2022/12/05 06:47:30;;;;;;;;;11.25;11.00;;;;;21.04;31.43;101296.69;5055739;28;45266;-54
2022/12/05 06:49:56;;;;;;;;;11.25;9.00;;;;;21.06;31.05;101307.16;5037722;28;45249;-51
2022/12/05 06:52:21;;;;;;;;;12.00;9.75;;;;;21.04;31.40;101306.38;5055523;28;45483;-51
2022/12/05 06:54:46;;;;;;;;;13.50;11.00;;;;;21.04;31.34;101311.66;5055484;28;45178;-53
2022/12/05 06:57:13;;;;;;;;;9.50;8.25;;;;;21.00;31.28;101306.53;5055547;28;45315;-54
2022/12/05 06:59:38;;;;;;;;;8.75;8.75;;;;;21.02;31.08;101311.72;5055687;28;45616;-55
2022/12/05 07:02:06;;;;;;;;;14.50;10.75;;;;;20.99;31.60;101310.13;5055586;28;45999;-59
2022/12/05 07:04:33;;;;;;;;;12.25;12.25;;;;;21.00;31.38;101318.84;5055595;28;45449;-56
2022/12/05 07:07:00;;;;;;;;;16.00;14.00;;;;;20.98;31.38;101321.56;5055369;28;45304;-56
2022/12/05 07:09:44;;;;;;;;;18.25;18.00;;;;;20.97;30.79;101319.00;5055481;28;46217;-56
2022/12/05 07:12:11;;;;;;;;;19.75;14.50;;;;;20.91;31.22;101325.44;5055308;28;46486;-55
2022/12/05 07:14:36;;;;;;;;;14.25;11.00;;;;;20.88;31.29;101341.41;5056004;28;45449;-59
2022/12/05 07:17:02;;;;;;;;;13.75;11.25;;;;;20.86;31.45;101335.34;5055976;28;45293;-55
2022/12/05 07:19:28;;;;;;;;;13.50;10.75;;;;;20.87;31.40;101339.69;5059228;28;45608;-56
2022/12/05 07:21:53;;;;;;;;;12.00;10.25;;;;;20.84;31.05;101334.56;5058849;28;46114;-50
2022/12/05 07:24:18;;;;;;;;;13.00;12.00;;;;;20.83;31.51;101332.84;5058388;28;53696;-50
2022/12/05 07:26:44;;;;;;;;;14.25;7.75;;;;;20.80;31.11;101336.50;5059014;28;45458;-48
2022/12/05 07:29:09;;;;;;;;;9.50;8.00;;;;;20.78;31.50;101341.00;5059295;28;45409;-51
2022/12/05 07:31:35;;;;;;;;;9.25;8.50;;;;;20.76;31.45;101344.63;5058908;28;46247;-54
2022/12/05 07:34:01;;;;;;;;;10.75;10.25;;;;;20.76;31.40;101345.47;5058735;28;45365;-51
2022/12/05 07:36:26;;;;;;;;;7.50;7.50;;;;;20.73;31.62;101350.00;5058930;28;45409;-50
2022/12/05 07:38:57;;;;;;;;;9.75;9.50;;;;;20.72;31.01;101361.47;5058928;28;45314;-51
2022/12/05 07:41:25;;;;;;;;;14.50;11.00;;;;;20.70;31.60;101357.13;5058642;28;45313;-54
2022/12/05 07:43:51;;;;;;;;;9.75;9.75;;;;;20.70;31.19;101364.19;5058294;28;45419;-48
2022/12/05 07:46:17;;;;;;;;;13.25;10.25;;;;;20.67;31.66;101364.31;5058733;28;45430;-54
2022/12/05 07:48:42;;;;;;;;;11.00;8.00;;;;;20.65;31.58;101376.72;5058790;28;45510;-50
2022/12/05 07:51:09;;;;;;;;;9.25;7.50;;;;;20.63;31.21;101375.91;5058828;28;45429;-47
2022/12/05 07:53:35;;;;;;;;;8.25;8.25;;;;;20.59;31.25;101377.84;5058637;28;45341;-50
2022/12/05 07:56:02;;;;;;;;;11.00;9.75;;;;;20.55;31.92;101377.16;5058565;28;45275;-50
2022/12/05 07:58:29;;;;;;;;;10.50;9.25;;;;;20.54;31.64;101380.69;5058685;28;45327;-50
2022/12/05 08:00:55;;;;;;;;;12.00;11.00;;;;;20.50;31.25;101376.53;5058214;28;46105;-55
2022/12/05 08:03:20;;;;;;;;;10.25;9.50;;;;;20.49;31.28;101380.09;5058347;28;45524;-50
2022/12/05 08:05:45;;;;;;;;;10.75;10.25;;;;;20.46;31.52;101381.97;5058319;28;45400;-58
2022/12/05 08:08:11;;;;;;;;;12.25;11.50;;;;;20.44;31.85;101384.69;5058303;28;45489;-47
2022/12/05 08:10:36;;;;;;;;;14.50;14.00;;;;;20.39;31.48;101390.16;5058272;28;51216;-52
2022/12/05 08:13:01;;;;;;;;;11.50;10.00;;;;;20.35;32.03;101395.66;5058167;28;45406;-52
2022/12/05 08:15:27;;;;;;;;;13.00;12.00;;;;;20.32;31.67;101401.91;5058295;28;45371;-51
2022/12/05 08:17:52;;;;;;;;;13.50;11.25;;;;;20.30;31.50;101409.03;5058460;28;45445;-54
2022/12/05 08:20:18;;;;;;;;;14.75;12.00;;;;;20.24;32.00;101409.28;5056682;28;48181;-55
2022/12/05 08:22:43;;;;;;;;;10.00;9.00;;;;;20.22;31.85;101411.16;5039987;28;45375;-51
2022/12/05 08:25:09;;;;;;;;;11.25;11.25;;;;;20.21;31.95;101409.44;5058437;28;45347;-49
2022/12/05 08:27:34;;;;;;;;;9.25;9.25;;;;;20.20;32.28;101408.56;5058185;28;45596;-50
2022/12/05 08:29:59;;;;;;;;;14.50;12.75;;;;;20.21;32.28;101409.44;5057472;28;45407;-54
2022/12/05 08:32:26;;;;;;;;;9.25;9.25;;;;;20.21;32.26;101414.72;5056516;28;45399;-50
2022/12/05 08:34:51;;;;;;;;;14.25;11.00;;;;;20.20;32.33;101413.00;5057788;28;45249;-52
2022/12/05 08:37:16;;;;;;;;;14.75;11.00;;;;;20.19;31.89;101406.03;5052373;28;45528;-54
2022/12/05 08:39:42;;;;;;;;;14.50;12.25;;;;;20.18;32.23;101406.94;5057400;28;45335;-51
2022/12/05 08:42:07;;;;;;;;;9.75;9.00;;;;;20.18;32.41;101409.56;5057113;28;45446;-50
2022/12/05 08:44:32;;;;;;;;;11.25;8.50;;;;;20.17;32.22;101414.00;5057413;28;45814;-52
2022/12/05 08:46:58;;;;;;;;;6.00;5.75;;;;;20.17;32.13;101421.03;5057806;28;45342;-50
2022/12/05 08:49:23;;;;;;;;;12.00;9.25;;;;;20.13;32.24;101406.28;5057088;28;45338;-51
2022/12/05 08:51:49;;;;;;;;;11.50;11.00;;;;;20.16;32.31;101416.69;5056917;28;45373;-51
2022/12/05 08:54:14;;;;;;;;;12.50;9.50;;;;;20.11;32.78;101402.88;5057352;28;45446;-55
2022/12/05 08:56:39;;;;;;;;;10.25;8.75;;;;;20.14;32.07;101414.13;5058080;28;45298;-54
2022/12/05 08:59:05;;;;;;;;;12.50;9.75;;;;;20.14;32.71;101410.63;5057070;28;45953;-52
2022/12/05 09:01:32;;;;;;;;;7.25;6.50;;;;;20.15;32.41;101420.22;5057037;28;45973;-52
2022/12/05 09:04:03;;;;;;;;;14.00;10.75;;;;;20.14;32.13;101429.91;5052593;28;45534;-50
2022/12/05 09:06:28;;;;;;;;;14.00;11.00;;;;;20.12;32.64;101425.66;5051453;28;45371;-48
2022/12/05 09:08:59;;;;;;;;;14.50;11.25;;;;;20.13;32.47;101432.59;5036517;28;45510;-50
2022/12/05 09:11:27;;;;;;;;;14.50;12.00;;;;;20.13;32.25;101432.59;5036923;28;45954;-52
2022/12/05 09:13:55;;;;;;;;;12.00;10.25;;;;;20.12;32.32;101433.53;5036984;28;45541;-50
2022/12/05 09:16:28;;;;;;;;;8.75;8.75;;;;;20.11;32.75;101437.94;5037089;28;45602;-46
2022/12/05 09:18:54;;;;;;;;;10.50;8.75;;;;;20.11;32.39;101432.66;5036874;28;46580;-54
2022/12/05 09:21:25;;;;;;;;;10.25;9.25;;;;;20.11;32.42;101429.19;5037261;28;46151;-50
2022/12/05 09:23:51;;;;;;;;;13.50;11.00;;;;;20.11;32.45;101439.72;5018948;28;45392;-51
2022/12/05 09:26:20;;;;;;;;;11.50;10.75;;;;;20.10;32.90;101438.00;5035638;28;45369;-54
2022/12/05 09:28:46;;;;;;;;;13.75;9.75;;;;;20.08;32.79;101443.31;5047133;28;47509;-44
2022/12/05 09:31:15;;;;;;;;;11.25;9.75;;;;;20.05;33.06;101446.94;5022300;28;45427;-52
2022/12/05 09:33:40;;;;;;;;;12.50;10.25;;;;;20.03;32.76;101438.25;5056953;28;45394;-52
2022/12/05 09:36:10;;;;;;;;;12.50;11.00;;;;;20.03;32.51;101446.16;5056558;28;45471;-54
2022/12/05 09:38:35;;;;;;;;;13.75;10.50;;;;;20.01;32.65;101442.72;5056462;28;46556;-56
2022/12/05 09:41:20;;;;;;;;;12.75;11.00;;;;;20.00;32.79;101448.06;5037436;28;45466;-53
2022/12/05 09:43:59;;;;;;;;;11.50;10.00;;;;;19.99;32.55;101447.22;5056154;28;45533;-51
2022/12/05 09:46:24;;;;;;;;;15.75;13.00;;;;;20.00;32.83;101448.94;5056678;28;45365;-53
2022/12/05 09:48:50;;;;;;;;;11.33;10.33;;;;;20.00;33.04;101448.94;5038507;28;48414;-53
2022/12/05 09:51:16;;;;;;;;;14.75;11.75;;;;;20.04;32.67;101461.03;5056297;28;46033;-55
2022/12/05 09:53:43;;;;;;;;;13.50;10.75;;;;;20.10;32.80;101457.28;5057003;28;45288;-53
2022/12/05 09:56:08;;;;;;;;;13.50;11.00;;;;;20.15;32.71;101457.94;5056738;28;45356;-47
2022/12/05 09:58:41;;;;;;;;;13.00;10.00;;;;;20.20;32.35;101460.38;5056356;28;46669;-54
2022/12/05 10:01:28;;;;;;;;;12.75;10.75;;;;;20.27;32.58;101460.97;5038391;28;45794;-50
2022/12/05 10:04:18;;;;;;;;;14.75;13.00;;;;;20.33;32.45;101466.81;5056547;28;45479;-50
2022/12/05 10:07:12;;;;;;;;;11.25;10.00;;;;;20.38;32.72;101474.50;5057041;28;45379;-44
2022/12/05 10:09:37;;;;;;;;;13.25;11.25;;;;;20.43;32.69;101472.50;5054449;28;45668;-48
2022/12/05 10:12:50;;;;;;;;;13.67;9.00;;;;;20.49;32.88;101466.97;5056459;28;45926;-51
2022/12/05 10:15:31;;;;;;;;;10.50;10.50;;;;;20.53;32.25;101470.31;5009627;28;45458;-49
2022/12/05 10:18:14;;;;;;;;;11.50;11.00;;;;;20.58;32.32;101476.22;5056471;28;45599;-54
2022/12/05 10:20:39;;;;;;;;;13.00;11.00;;;;;20.57;32.69;101469.22;5056136;28;46335;-52
2022/12/05 10:23:14;;;;;;;;;11.00;11.00;;;;;20.66;32.04;101475.88;5056300;28;45232;-52
2022/12/05 10:25:41;;;;;;;;;11.75;11.75;;;;;20.69;32.38;101479.22;5056159;28;45423;-50
2022/12/05 10:28:17;;;;;;;;;11.00;11.00;;;;;20.77;32.13;101486.81;5056318;28;45612;-52
2022/12/05 10:30:46;;;;;;;;;11.50;10.25;;;;;20.82;32.37;101483.94;5056346;28;45244;-51
2022/12/05 10:33:22;;;;;;;;;14.50;13.50;;;;;20.83;32.10;101475.13;5056233;28;45444;-54
2022/12/05 10:35:52;;;;;;;;;14.00;11.75;;;;;20.84;31.70;101466.31;5056384;28;45418;-51
2022/12/05 10:38:28;;;;;;;;;11.00;9.00;;;;;20.87;31.84;101471.44;5056435;28;45365;-52
2022/12/05 10:40:58;;;;;;;;;12.50;10.75;;;;;20.88;31.72;101475.78;5056063;28;46705;-51
2022/12/05 10:43:31;;;;;;;;;13.50;10.25;;;;;20.91;32.14;101474.78;5053892;28;45328;-53
2022/12/05 10:45:58;;;;;;;;;14.75;12.00;;;;;20.92;31.64;101476.50;5035615;28;45398;-49
2022/12/05 10:48:25;;;;;;;;;12.00;11.00;;;;;20.90;31.63;101471.28;5035687;28;45431;-51
2022/12/05 10:50:55;;;;;;;;;11.75;11.25;;;;;20.92;31.75;101466.78;5034627;28;46726;-53
2022/12/05 10:53:48;;;;;;;;;12.00;12.00;;;;;20.93;31.69;101476.41;5037123;28;45402;-50
2022/12/05 10:56:35;;;;;;;;;12.25;9.50;;;;;20.95;31.77;101476.31;5036371;28;45558;-53
2022/12/05 10:59:01;;;;;;;;;13.25;12.25;;;;;20.98;32.32;101484.09;5038918;28;45449;-53
2022/12/05 11:01:27;;;;;;;;;11.25;10.00;;;;;20.98;32.25;101477.06;5037974;28;46026;-54
2022/12/05 11:03:58;;;;;;;;;17.25;11.75;;;;;21.01;32.08;101479.53;5037219;28;45495;-53
2022/12/05 11:06:31;;;;;;;;;15.00;11.50;;;;;21.03;32.02;101474.19;5037981;28;45392;-51
2022/12/05 11:09:01;;;;;;;;;12.75;11.75;;;;;21.05;32.30;101476.75;5038577;28;45427;-51
2022/12/05 11:11:32;;;;;;;;;15.00;11.50;;;;;21.05;31.49;101479.38;5038293;28;46451;-56
2022/12/05 11:14:01;;;;;;;;;12.00;12.00;;;;;21.07;31.25;101477.53;5038367;28;45409;-54
2022/12/05 11:16:35;;;;;;;;;11.50;10.50;;;;;21.08;31.92;101480.09;5038621;28;45428;-54
2022/12/05 11:19:27;;;;;;;;;16.00;11.50;;;;;21.08;31.77;101479.25;5036581;28;45435;-49
2022/12/05 11:21:53;;;;;;;;;12.50;12.25;;;;;21.07;31.70;101477.53;5036703;28;45368;-56
2022/12/05 11:24:27;;;;;;;;;12.00;11.00;;;;;21.04;31.55;101472.41;5038231;28;45851;-49
2022/12/05 11:26:53;;;;;;;;;14.25;9.00;;;;;21.00;31.42;101477.81;5037785;28;45317;-56
2022/12/05 11:29:35;;;;;;;;;16.50;11.00;;;;;21.00;31.89;101480.44;5038702;28;45289;-53